createdAt,value
2019-02-23T00:00:01.114Z,42.65
2019-02-23T00:02:29.505Z,45.68
2019-02-23T00:04:57.908Z,43.70
2019-02-23T00:07:26.298Z,44.02
2019-02-23T00:09:54.742Z,46.08
2019-02-23T00:12:23.127Z,45.61
2019-02-23T00:14:51.522Z,45.70
2019-02-23T00:17:19.974Z,45.99
2019-02-23T00:19:48.371Z,45.91
2019-02-23T00:22:16.812Z,46.26
2019-02-23T00:24:45.218Z,44.76
2019-02-23T00:27:13.607Z,44.70
2019-02-23T00:29:41.995Z,44.81
2019-02-23T00:32:10.475Z,44.81
2019-02-23T00:34:38.863Z,45.40
2019-02-23T00:37:07.325Z,45.18
2019-02-23T00:39:35.726Z,46.07
2019-02-23T00:42:04.162Z,43.34
2019-02-23T00:44:32.566Z,45.86
2019-02-23T00:47:00.992Z,44.54
2019-02-23T00:49:36.239Z,45.96
2019-02-23T00:51:59.481Z,46.30
2019-02-23T00:54:27.884Z,46.12
2019-02-23T00:56:56.278Z,44.99
2019-02-23T00:59:24.662Z,45.67
2019-02-23T01:01:53.034Z,45.25
2019-02-23T01:04:21.440Z,45.72
2019-02-23T01:06:49.816Z,44.12
2019-02-23T01:09:18.214Z,44.66
2019-02-23T01:11:46.658Z,45.33
2019-02-23T01:14:15.056Z,45.37
2019-02-23T01:16:43.445Z,45.63
2019-02-23T01:19:11.840Z,45.45
2019-02-23T01:21:40.275Z,44.74
2019-02-23T01:24:08.658Z,44.74
2019-02-23T01:26:37.039Z,45.71
2019-02-23T01:29:05.433Z,45.31
2019-02-23T01:31:33.887Z,45.39
2019-02-23T01:34:02.261Z,44.54
2019-02-23T01:36:31.280Z,43.72
2019-02-23T01:38:59.595Z,44.80
2019-02-23T01:41:27.980Z,45.84
2019-02-23T01:43:56.356Z,45.16
2019-02-23T01:46:24.748Z,44.20
2019-02-23T01:48:53.114Z,45.80
2019-02-23T01:51:21.504Z,45.31
2019-02-23T01:53:49.883Z,45.41
2019-02-23T01:56:18.407Z,41.96
2019-02-23T01:58:46.786Z,44.48
2019-02-23T02:01:15.175Z,45.30
2019-02-23T02:03:43.625Z,46.12
2019-02-23T02:06:12.089Z,46.05
2019-02-23T02:08:40.791Z,46.22
2019-02-23T02:11:09.188Z,45.54
2019-02-23T02:13:37.562Z,45.75
2019-02-23T02:16:06.088Z,45.89
2019-02-23T02:18:34.512Z,45.62
2019-02-23T02:21:02.895Z,45.34
2019-02-23T02:23:31.725Z,45.15
2019-02-23T02:26:00.099Z,43.80
2019-02-23T02:28:28.489Z,45.43
2019-02-23T02:30:56.876Z,43.88
2019-02-23T02:33:25.261Z,45.20
2019-02-23T02:35:53.649Z,44.57
2019-02-23T02:38:22.037Z,44.79
2019-02-23T02:40:50.428Z,44.44
2019-02-23T02:43:18.796Z,44.61
2019-02-23T02:45:47.180Z,44.30
2019-02-23T02:48:15.555Z,45.23
2019-02-23T02:50:43.934Z,45.05
2019-02-23T02:53:12.311Z,45.75
2019-02-23T02:55:40.695Z,44.17
2019-02-23T02:58:09.071Z,44.70
2019-02-23T03:00:37.470Z,43.11
2019-02-23T03:03:05.847Z,44.73
2019-02-23T03:05:34.228Z,44.97
2019-02-23T03:08:02.603Z,44.81
2019-02-23T03:10:31.785Z,43.95
2019-02-23T03:13:00.169Z,45.04
2019-02-23T03:15:28.562Z,43.96
2019-02-23T03:17:56.935Z,45.03
2019-02-23T03:20:36.309Z,44.51
2019-02-23T03:22:55.465Z,45.74
2019-02-23T03:25:23.833Z,44.99
2019-02-23T03:27:52.220Z,44.75
2019-02-23T03:30:20.636Z,43.12
2019-02-23T03:32:49.050Z,44.88
2019-02-23T03:35:17.457Z,45.15
2019-02-23T03:37:45.902Z,44.97
2019-02-23T03:40:14.307Z,42.83
2019-02-23T03:42:42.677Z,43.95
2019-02-23T03:45:11.059Z,45.53
2019-02-23T03:47:39.461Z,45.04
2019-02-23T03:50:08.346Z,45.11
2019-02-23T03:52:36.733Z,45.37
2019-02-23T03:55:05.390Z,45.75
2019-02-23T03:57:33.793Z,45.83
2019-02-23T04:00:02.278Z,43.78
2019-02-23T04:02:30.668Z,44.11
2019-02-23T04:04:59.065Z,43.55
2019-02-23T04:07:27.449Z,45.08
2019-02-23T04:09:55.856Z,43.04
2019-02-23T04:12:24.256Z,44.84
2019-02-23T04:14:52.744Z,44.79
2019-02-23T04:17:21.144Z,43.52
2019-02-23T04:19:49.519Z,43.31
2019-02-23T04:22:17.972Z,44.32
2019-02-23T04:24:46.354Z,44.36
2019-02-23T04:27:14.755Z,42.37
2019-02-23T04:29:43.139Z,43.59
2019-02-23T04:32:11.518Z,44.86
2019-02-23T04:34:39.891Z,44.29
2019-02-23T04:37:08.342Z,45.12
2019-02-23T04:39:36.724Z,44.94
2019-02-23T04:42:05.111Z,43.87
2019-02-23T04:44:33.491Z,43.96
2019-02-23T04:47:02.420Z,43.38
2019-02-23T04:49:30.812Z,43.65
2019-02-23T04:51:59.224Z,43.93
2019-02-23T04:54:27.845Z,44.29
2019-02-23T04:56:56.236Z,42.73
2019-02-23T04:59:24.610Z,44.47
2019-02-23T05:01:53.017Z,44.44
2019-02-23T05:04:21.423Z,45.86
2019-02-23T05:06:49.808Z,45.58
2019-02-23T05:09:18.191Z,44.32
2019-02-23T05:11:46.582Z,45.22
2019-02-23T05:14:14.956Z,45.23
2019-02-23T05:16:43.335Z,45.12
2019-02-23T05:19:11.804Z,45.58
2019-02-23T05:21:40.178Z,45.47
2019-02-23T05:24:08.566Z,45.02
2019-02-23T05:26:36.942Z,44.51
2019-02-23T05:29:05.348Z,43.92
2019-02-23T05:31:33.705Z,45.32
2019-02-23T05:34:02.821Z,45.15
2019-02-23T05:36:31.190Z,45.40
2019-02-23T05:38:59.581Z,45.31
2019-02-23T05:41:28.014Z,45.83
2019-02-23T05:43:56.394Z,45.34
2019-02-23T05:46:24.772Z,44.57
2019-02-23T05:48:53.150Z,44.61
2019-02-23T05:51:21.527Z,44.38
2019-02-23T05:53:49.914Z,45.03
2019-02-23T05:56:18.289Z,44.02
2019-02-23T05:58:46.850Z,44.31
2019-02-23T06:01:15.230Z,45.43
2019-02-23T06:03:43.618Z,45.39
2019-02-23T06:06:11.994Z,43.58
2019-02-23T06:08:40.381Z,45.26
2019-02-23T06:11:08.759Z,45.54
2019-02-23T06:13:37.140Z,45.54
2019-02-23T06:16:05.636Z,45.86
2019-02-23T06:18:34.007Z,45.83
2019-02-23T06:21:03.147Z,45.67
2019-02-23T06:23:31.522Z,45.17
2019-02-23T06:25:59.965Z,45.60
2019-02-23T06:28:28.341Z,45.30
2019-02-23T06:30:56.717Z,45.77
2019-02-23T06:33:25.099Z,45.22
2019-02-23T06:35:53.484Z,45.35
2019-02-23T06:38:21.955Z,45.86
2019-02-23T06:40:53.061Z,45.20
2019-02-23T06:43:21.465Z,45.87
2019-02-23T06:45:49.863Z,45.25
2019-02-23T06:48:19.953Z,45.41
2019-02-23T06:50:48.345Z,45.54
2019-02-23T06:53:16.823Z,45.06
2019-02-23T06:55:45.212Z,45.07
2019-02-23T06:58:13.698Z,43.86
2019-02-23T07:00:42.070Z,45.06
2019-02-23T07:03:10.452Z,45.37
2019-02-23T07:05:38.941Z,45.30
2019-02-23T07:08:07.416Z,45.51
2019-02-23T07:10:35.803Z,45.40
2019-02-23T07:13:04.178Z,44.98
2019-02-23T07:15:33.536Z,42.68
2019-02-23T07:18:01.943Z,43.87
2019-02-23T07:20:30.355Z,45.51
2019-02-23T07:22:58.707Z,45.53
2019-02-23T07:25:27.092Z,45.78
2019-02-23T07:27:55.468Z,45.54
2019-02-23T07:30:23.852Z,45.40
2019-02-23T07:32:52.226Z,45.76
2019-02-23T07:35:20.616Z,45.61
2019-02-23T07:37:49.070Z,43.82
2019-02-23T07:40:17.925Z,45.01
2019-02-23T07:42:46.975Z,45.58
2019-02-23T07:45:15.358Z,46.11
2019-02-23T07:47:43.828Z,46.11
2019-02-23T07:50:14.251Z,45.38
2019-02-23T07:52:42.637Z,45.24
2019-02-23T07:55:11.097Z,45.26
2019-02-23T07:57:39.475Z,45.14
2019-02-23T08:00:12.875Z,45.03
2019-02-23T08:02:41.258Z,44.91
2019-02-23T08:05:10.372Z,44.89
2019-02-23T08:07:39.917Z,44.71
2019-02-23T08:10:10.522Z,44.59
2019-02-23T08:12:38.906Z,44.54
2019-02-23T08:15:10.011Z,44.38
2019-02-23T08:17:38.504Z,44.34
2019-02-23T08:20:09.628Z,44.25
2019-02-23T08:22:38.016Z,44.00
2019-02-23T08:25:09.130Z,43.87
2019-02-23T08:27:37.528Z,43.69
2019-02-23T08:30:09.214Z,43.95
2019-02-23T08:32:37.987Z,44.07
2019-02-23T08:35:07.706Z,44.27
2019-02-23T08:37:36.095Z,44.26
2019-02-23T08:40:07.259Z,44.04
2019-02-23T08:42:35.705Z,44.04
2019-02-23T08:45:04.984Z,44.09
2019-02-23T08:47:34.277Z,43.22
2019-02-23T08:50:02.651Z,44.10
2019-02-23T08:52:31.027Z,44.24
2019-02-23T08:54:59.413Z,44.18
2019-02-23T08:57:27.795Z,44.21
2019-02-23T08:59:56.172Z,44.35
2019-02-23T09:02:24.548Z,44.35
2019-02-23T09:04:52.938Z,44.38
2019-02-23T09:07:21.453Z,44.08
2019-02-23T09:09:49.846Z,44.22
2019-02-23T09:12:18.224Z,44.26
2019-02-23T09:14:46.696Z,44.17
2019-02-23T09:17:15.080Z,44.14
2019-02-23T09:19:43.464Z,44.00
2019-02-23T09:22:11.897Z,43.86
2019-02-23T09:24:40.376Z,43.86
2019-02-23T09:27:08.761Z,43.92
2019-02-23T09:29:37.144Z,43.93
2019-02-23T09:32:05.531Z,43.75
2019-02-23T09:34:34.634Z,43.59
2019-02-23T09:37:03.087Z,43.67
2019-02-23T09:39:31.467Z,43.71
2019-02-23T09:42:07.216Z,43.70
2019-02-23T09:44:29.947Z,43.42
2019-02-23T09:46:58.325Z,43.65
2019-02-23T09:49:26.706Z,43.65
2019-02-23T09:51:55.078Z,43.46
2019-02-23T09:54:23.466Z,43.42
2019-02-23T09:56:51.863Z,43.05
2019-02-23T09:59:20.239Z,43.10
2019-02-23T10:01:48.614Z,43.01
2019-02-23T10:04:17.003Z,43.13
2019-02-23T10:06:45.387Z,43.24
2019-02-23T10:09:13.772Z,43.21
2019-02-23T10:11:42.169Z,43.32
2019-02-23T10:14:10.653Z,36.80
2019-02-23T10:16:39.032Z,36.82
2019-02-23T10:19:07.467Z,36.45
2019-02-23T10:21:35.859Z,35.19
2019-02-23T10:24:04.908Z,34.99
2019-02-23T10:26:33.299Z,34.43
2019-02-23T10:29:01.676Z,33.98
2019-02-23T10:31:30.089Z,33.50
2019-02-23T10:33:58.468Z,32.76
2019-02-23T10:36:26.856Z,32.43
2019-02-23T10:41:16.042Z,32.14
2019-02-23T10:43:44.423Z,30.44
2019-02-23T10:46:12.803Z,30.55
2019-02-23T10:48:41.175Z,31.93
2019-02-23T10:51:09.564Z,32.35
2019-02-23T10:53:37.944Z,32.69
2019-02-23T10:56:06.331Z,32.95
2019-02-23T10:58:35.133Z,33.21
2019-02-23T11:01:03.689Z,33.47
2019-02-23T11:03:32.066Z,33.87
2019-02-23T11:06:00.526Z,34.10
2019-02-23T11:08:28.907Z,34.17
2019-02-23T11:10:57.299Z,34.42
2019-02-23T11:13:25.684Z,34.74
2019-02-23T11:15:54.076Z,34.92
2019-02-23T11:18:22.456Z,35.00
2019-02-23T11:20:50.891Z,34.96
2019-02-23T11:23:19.332Z,35.12
2019-02-23T11:25:47.755Z,35.25
2019-02-23T11:28:16.246Z,35.32
2019-02-23T11:30:44.622Z,35.33
2019-02-23T11:33:13.011Z,35.48
2019-02-23T11:35:41.495Z,35.61
2019-02-23T11:38:09.878Z,35.64
2019-02-23T11:40:38.255Z,33.64
2019-02-23T11:43:06.649Z,34.76
2019-02-23T11:45:35.440Z,34.68
2019-02-23T11:48:03.837Z,34.49
2019-02-23T11:50:32.220Z,34.79
2019-02-23T11:53:00.616Z,34.37
2019-02-23T11:55:28.992Z,34.69
2019-02-23T11:57:57.408Z,34.77
2019-02-23T12:00:25.791Z,34.67
2019-02-23T12:02:54.179Z,34.66
2019-02-23T12:05:22.563Z,34.39
2019-02-23T12:07:50.943Z,34.23
2019-02-23T12:10:19.319Z,34.22
2019-02-23T12:12:47.707Z,28.98
2019-02-23T12:15:16.162Z,30.25
2019-02-23T12:17:44.549Z,31.17
2019-02-23T12:20:12.991Z,31.44
2019-02-23T12:22:41.381Z,31.68
2019-02-23T12:25:12.961Z,31.82
2019-02-23T12:27:40.147Z,32.34
2019-02-23T12:30:10.901Z,32.16
2019-02-23T12:32:39.308Z,31.91
2019-02-23T12:35:10.099Z,31.91
2019-02-23T12:37:38.496Z,31.83
2019-02-23T12:40:08.412Z,32.05
2019-02-23T12:42:36.863Z,32.10
2019-02-23T12:45:11.235Z,32.34
2019-02-23T12:47:39.631Z,32.94
2019-02-23T12:50:11.062Z,32.94
2019-02-23T12:52:39.448Z,33.02
2019-02-23T12:55:11.748Z,33.33
2019-02-23T12:57:40.139Z,33.47
2019-02-23T13:00:12.104Z,33.70
2019-02-23T13:02:40.564Z,33.95
2019-02-23T13:05:09.320Z,34.04
2019-02-23T13:07:37.706Z,34.03
2019-02-23T13:10:11.348Z,34.32
2019-02-23T13:12:54.290Z,34.60
2019-02-23T13:15:31.507Z,34.72
2019-02-23T13:18:28.982Z,35.11
2019-02-23T13:21:19.869Z,35.15
2019-02-23T13:24:14.731Z,35.51
2019-02-23T13:26:51.996Z,35.80
2019-02-23T13:29:29.410Z,35.86
2019-02-23T13:32:00.895Z,36.10
2019-02-23T13:34:56.708Z,36.31
2019-02-23T13:37:30.849Z,36.22
2019-02-23T13:40:11.244Z,36.42
2019-02-23T13:43:05.373Z,36.48
2019-02-23T13:45:58.236Z,36.01
2019-02-23T13:48:32.650Z,36.75
2019-02-23T13:51:13.250Z,36.71
2019-02-23T13:53:53.142Z,36.38
2019-02-23T13:56:49.768Z,36.55
2019-02-23T13:59:43.545Z,36.63
2019-02-23T14:02:31.256Z,36.54
2019-02-23T14:05:17.829Z,37.21
2019-02-23T14:08:12.235Z,36.99
2019-02-23T14:11:06.191Z,37.02
2019-02-23T14:13:37.632Z,36.76
2019-02-23T14:16:24.546Z,37.08
2019-02-23T14:18:55.977Z,36.82
2019-02-23T14:21:45.523Z,37.07
2019-02-23T14:24:55.867Z,37.56
2019-02-23T14:27:48.478Z,37.83
2019-02-23T14:30:22.805Z,37.99
2019-02-23T14:33:06.389Z,38.07
2019-02-23T14:35:37.817Z,37.48
2019-02-23T14:38:29.014Z,37.84
2019-02-23T14:41:09.154Z,38.22
2019-02-23T14:43:58.788Z,38.08
2019-02-23T14:46:38.809Z,38.10
2019-02-23T14:49:21.933Z,38.46
2019-02-23T14:51:53.425Z,37.76
2019-02-23T14:54:39.910Z,38.02
2019-02-23T14:57:20.103Z,38.79
2019-02-23T14:59:51.524Z,36.79
2019-02-23T15:02:42.569Z,39.03
2019-02-23T15:05:29.279Z,38.91
2019-02-23T15:08:33.642Z,39.83
2019-02-23T15:11:21.458Z,39.85
2019-02-23T15:14:10.805Z,39.60
2019-02-23T15:17:04.887Z,39.29
2019-02-23T15:20:07.908Z,39.50
2019-02-23T15:22:57.977Z,39.63
2019-02-23T15:25:35.368Z,39.92
2019-02-23T15:28:36.010Z,39.56
2019-02-23T15:31:15.391Z,39.28
2019-02-23T15:33:55.671Z,39.88
2019-02-23T15:36:39.248Z,39.87
2019-02-23T15:39:16.630Z,39.89
2019-02-23T15:42:06.248Z,39.71
2019-02-23T15:44:46.472Z,40.25
2019-02-23T15:47:34.859Z,39.17
2019-02-23T15:50:13.963Z,39.95
2019-02-23T15:52:33.552Z,39.65
2019-02-23T15:55:01.905Z,39.55
2019-02-23T15:57:30.289Z,40.23
2019-02-23T15:59:58.689Z,39.16
2019-02-23T16:02:27.065Z,39.61
2019-02-23T16:04:55.441Z,40.09
2019-02-23T16:07:23.826Z,39.92
2019-02-23T16:09:52.271Z,39.35
2019-02-23T16:12:20.634Z,39.58
2019-02-23T16:14:49.000Z,39.87
2019-02-23T16:17:17.388Z,40.00
2019-02-23T16:19:45.764Z,40.26
2019-02-23T16:22:14.146Z,40.78
2019-02-23T16:24:42.528Z,40.12
2019-02-23T16:27:10.915Z,39.72
2019-02-23T16:29:39.302Z,38.77
2019-02-23T16:32:07.688Z,39.07
2019-02-23T16:34:36.063Z,39.24
2019-02-23T16:37:04.454Z,39.28
2019-02-23T16:39:32.884Z,39.06
2019-02-23T16:42:01.272Z,39.09
2019-02-23T16:44:29.657Z,39.77
2019-02-23T16:46:58.039Z,39.98
2019-02-23T16:49:26.421Z,38.50
2019-02-23T16:51:54.802Z,39.28
2019-02-23T16:54:23.269Z,39.46
2019-02-23T16:56:51.647Z,39.93
2019-02-23T16:59:20.029Z,39.92
2019-02-23T17:01:48.403Z,39.72
2019-02-23T17:04:16.890Z,39.95
2019-02-23T17:06:45.353Z,39.53
2019-02-23T17:09:13.659Z,39.83
2019-02-23T17:11:42.038Z,39.48
2019-02-23T17:14:10.419Z,39.81
2019-02-23T17:16:38.798Z,40.23
2019-02-23T17:19:07.940Z,39.89
2019-02-23T17:21:36.340Z,39.14
2019-02-23T17:24:04.835Z,40.17
2019-02-23T17:26:36.532Z,40.17
2019-02-23T17:29:03.326Z,39.76
2019-02-23T17:31:31.723Z,38.97
2019-02-23T17:34:00.199Z,39.64
2019-02-23T17:36:28.588Z,39.17
2019-02-23T17:38:56.966Z,39.53
2019-02-23T17:41:25.375Z,39.70
2019-02-23T17:43:54.208Z,39.33
2019-02-23T17:46:22.675Z,40.21
2019-02-23T17:48:51.061Z,40.11
2019-02-23T17:51:19.444Z,40.28
2019-02-23T17:53:47.827Z,40.39
2019-02-23T17:56:16.202Z,40.03
2019-02-23T17:58:44.593Z,38.82
2019-02-23T18:01:12.967Z,39.51
2019-02-23T18:03:41.351Z,40.26
2019-02-23T18:06:09.726Z,40.18
2019-02-23T18:08:38.243Z,39.37
2019-02-23T18:11:06.619Z,40.38
2019-02-23T18:13:35.073Z,39.94
2019-02-23T18:16:03.456Z,39.94
2019-02-23T18:18:31.844Z,40.01
2019-02-23T18:21:00.297Z,40.17
2019-02-23T18:23:28.711Z,39.40
2019-02-23T18:25:57.088Z,39.25
2019-02-23T18:28:25.471Z,38.14
2019-02-23T18:30:53.846Z,37.87
2019-02-23T18:33:22.226Z,37.76
2019-02-23T18:35:50.614Z,37.55
2019-02-23T18:38:18.998Z,38.33
2019-02-23T18:40:47.386Z,37.55
2019-02-23T18:43:15.761Z,38.02
2019-02-23T18:45:47.341Z,36.56
2019-02-23T18:48:14.256Z,38.64
2019-02-23T18:50:42.660Z,39.16
2019-02-23T18:53:11.061Z,39.17
2019-02-23T18:55:41.307Z,38.22
2019-02-23T18:58:09.689Z,40.07
2019-02-23T19:00:38.646Z,38.50
2019-02-23T19:03:07.024Z,37.09
2019-02-23T19:05:35.431Z,38.41
2019-02-23T19:08:03.895Z,37.85
2019-02-23T19:10:32.383Z,38.01
2019-02-23T19:13:00.759Z,38.78
2019-02-23T19:15:29.146Z,40.19
2019-02-23T19:17:57.548Z,42.58
2019-02-23T19:20:25.937Z,41.81
2019-02-23T19:22:54.316Z,42.58
2019-02-23T19:25:22.708Z,41.72
2019-02-23T19:27:51.160Z,42.23
2019-02-23T19:30:19.822Z,42.48
2019-02-23T19:32:48.208Z,41.35
2019-02-23T19:35:16.603Z,40.27
2019-02-23T19:37:45.021Z,40.62
2019-02-23T19:40:13.412Z,43.36
2019-02-23T19:42:41.793Z,44.84
2019-02-23T19:45:11.748Z,42.90
2019-02-23T19:47:41.925Z,43.43
2019-02-23T19:50:13.549Z,44.17
2019-02-23T19:52:41.941Z,43.16
2019-02-23T19:55:13.673Z,43.95
2019-02-23T19:57:42.053Z,42.58
2019-02-23T20:00:10.717Z,45.07
2019-02-23T20:02:39.268Z,43.33
2019-02-23T20:05:10.106Z,43.37
2019-02-23T20:07:39.205Z,45.12
2019-02-23T20:10:09.837Z,44.22
2019-02-23T20:12:39.201Z,43.82
2019-02-23T20:15:09.727Z,43.62
2019-02-23T20:17:38.105Z,44.77
2019-02-23T20:20:07.540Z,44.95
2019-02-23T20:22:35.939Z,45.67
2019-02-23T20:25:05.834Z,45.64
2019-02-23T20:27:34.228Z,44.72
2019-02-23T20:30:02.717Z,44.85
2019-02-23T20:32:31.738Z,45.41
2019-02-23T20:35:00.263Z,44.97
2019-02-23T20:37:28.583Z,45.95
2019-02-23T20:39:56.973Z,45.96
2019-02-23T20:42:25.391Z,45.90
2019-02-23T20:44:53.807Z,44.90
2019-02-23T20:47:22.206Z,42.50
2019-02-23T20:49:50.677Z,46.44
2019-02-23T20:52:19.152Z,46.02
2019-02-23T20:54:47.530Z,45.61
2019-02-23T20:57:16.010Z,45.92
2019-02-23T20:59:44.387Z,46.27
2019-02-23T21:02:12.847Z,46.18
2019-02-23T21:04:41.299Z,45.96
2019-02-23T21:07:09.687Z,44.87
2019-02-23T21:09:38.135Z,45.45
2019-02-23T21:12:06.553Z,44.09
2019-02-23T21:14:34.918Z,42.60
2019-02-23T21:17:03.312Z,42.82
2019-02-23T21:19:31.696Z,46.65
2019-02-23T21:22:00.085Z,41.82
2019-02-23T21:24:28.465Z,44.78
2019-02-23T21:26:56.846Z,41.54
2019-02-23T21:29:25.427Z,41.71
2019-02-23T21:31:54.843Z,42.57
2019-02-23T21:34:23.225Z,44.52
2019-02-23T21:36:51.617Z,40.71
2019-02-23T21:39:19.993Z,43.87
2019-02-23T21:41:48.380Z,42.12
2019-02-23T21:44:16.756Z,43.17
2019-02-23T21:46:45.226Z,43.36
2019-02-23T21:49:13.603Z,43.82
2019-02-23T21:51:42.088Z,38.31
2019-02-23T21:54:11.056Z,42.64
2019-02-23T21:56:39.976Z,40.83
2019-02-23T21:59:08.442Z,43.21
2019-02-23T22:01:36.934Z,39.63
2019-02-23T22:04:05.473Z,40.76
2019-02-23T22:06:33.906Z,40.34
2019-02-23T22:09:02.295Z,39.36
2019-02-23T22:11:30.664Z,38.96
2019-02-23T22:13:59.111Z,42.57
2019-02-23T22:16:27.508Z,42.64
2019-02-23T22:18:55.975Z,42.67
2019-02-23T22:21:24.390Z,43.46
2019-02-23T22:23:52.773Z,44.23
2019-02-23T22:26:21.175Z,43.39
2019-02-23T22:28:49.557Z,44.31
2019-02-23T22:31:17.940Z,43.01
2019-02-23T22:33:46.481Z,43.23
2019-02-23T22:36:14.945Z,44.80
2019-02-23T22:38:43.413Z,45.94
2019-02-23T22:41:11.807Z,43.79
2019-02-23T22:43:40.295Z,44.45
2019-02-23T22:46:08.678Z,42.92
2019-02-23T22:48:37.050Z,43.30
2019-02-23T22:51:05.440Z,44.34
2019-02-23T22:53:33.815Z,45.77
2019-02-23T22:56:02.205Z,45.90
2019-02-23T22:58:30.599Z,44.72
2019-02-23T23:01:00.892Z,45.89
2019-02-23T23:03:29.268Z,45.02
2019-02-23T23:05:57.644Z,45.68
2019-02-23T23:08:26.027Z,46.30
2019-02-23T23:10:54.407Z,45.88
2019-02-23T23:13:22.873Z,45.89
2019-02-23T23:15:51.341Z,45.67
2019-02-23T23:18:19.728Z,46.00
2019-02-23T23:20:48.118Z,45.56
2019-02-23T23:23:16.504Z,45.62
2019-02-23T23:25:44.963Z,45.66
2019-02-23T23:28:13.351Z,45.85
2019-02-23T23:30:41.822Z,44.81
2019-02-23T23:33:10.654Z,44.35
2019-02-23T23:35:39.029Z,44.99
2019-02-23T23:38:07.479Z,44.91
2019-02-23T23:40:35.848Z,44.20
2019-02-23T23:43:04.232Z,44.75
2019-02-23T23:45:32.623Z,43.81
2019-02-23T23:48:01.011Z,44.68
2019-02-23T23:50:29.387Z,43.79
2019-02-23T23:52:57.850Z,43.21
2019-02-23T23:55:26.318Z,44.93
2019-02-23T23:57:58.241Z,44.51
